sensor_id;sensor_type;location;lat;lon;timestamp;P1;durP1;ratioP1;P2;durP2;ratioP2
5622;SDS011;2833;50.432;10.706;2022-10-16T00:00:53;2.90;;;2.70;;
5622;SDS011;2833;50.432;10.706;2022-10-16T00:03:18;3.60;;;3.30;;
5622;SDS011;2833;50.432;10.706;2022-10-16T00:05:43;3.20;;;2.90;;
5622;SDS011;2833;50.432;10.706;2022-10-16T00:08:09;2.90;;;2.60;;
5622;SDS011;2833;50.432;10.706;2022-10-16T00:10:35;4.77;;;2.63;;
5622;SDS011;2833;50.432;10.706;2022-10-16T00:13:00;3.07;;;2.87;;
5622;SDS011;2833;50.432;10.706;2022-10-16T00:15:25;2.80;;;2.60;;
5622;SDS011;2833;50.432;10.706;2022-10-16T00:17:51;4.20;;;2.67;;
5622;SDS011;2833;50.432;10.706;2022-10-16T00:20:16;3.10;;;2.90;;
5622;SDS011;2833;50.432;10.706;2022-10-16T00:22:42;3.37;;;2.47;;
5622;SDS011;2833;50.432;10.706;2022-10-16T00:25:07;2.57;;;2.37;;
5622;SDS011;2833;50.432;10.706;2022-10-16T00:27:33;2.10;;;2.00;;
5622;SDS011;2833;50.432;10.706;2022-10-16T00:29:58;2.80;;;2.60;;
5622;SDS011;2833;50.432;10.706;2022-10-16T00:32:23;3.07;;;2.80;;
5622;SDS011;2833;50.432;10.706;2022-10-16T00:34:49;2.93;;;2.73;;
5622;SDS011;2833;50.432;10.706;2022-10-16T00:37:14;3.10;;;2.83;;
5622;SDS011;2833;50.432;10.706;2022-10-16T00:39:39;2.80;;;2.60;;
5622;SDS011;2833;50.432;10.706;2022-10-16T00:42:04;2.83;;;2.63;;
5622;SDS011;2833;50.432;10.706;2022-10-16T00:44:48;2.57;;;2.37;;
5622;SDS011;2833;50.432;10.706;2022-10-16T00:49:49;4.40;;;2.50;;
5622;SDS011;2833;50.432;10.706;2022-10-16T00:52:15;3.10;;;2.50;;
5622;SDS011;2833;50.432;10.706;2022-10-16T00:54:41;2.90;;;2.50;;
5622;SDS011;2833;50.432;10.706;2022-10-16T00:57:08;2.63;;;2.53;;
5622;SDS011;2833;50.432;10.706;2022-10-16T00:59:37;4.90;;;2.87;;
5622;SDS011;2833;50.432;10.706;2022-10-16T01:02:04;3.30;;;2.87;;
5622;SDS011;2833;50.432;10.706;2022-10-16T01:04:34;3.20;;;3.00;;
5622;SDS011;2833;50.432;10.706;2022-10-16T01:09:55;3.50;;;3.30;;
5622;SDS011;2833;50.432;10.706;2022-10-16T01:12:33;3.33;;;3.10;;
5622;SDS011;2833;50.432;10.706;2022-10-16T01:15:05;3.50;;;3.10;;
5622;SDS011;2833;50.432;10.706;2022-10-16T01:22:51;3.13;;;2.13;;
5622;SDS011;2833;50.432;10.706;2022-10-16T01:25:22;2.30;;;2.10;;
5622;SDS011;2833;50.432;10.706;2022-10-16T01:27:49;10.03;;;2.33;;
5622;SDS011;2833;50.432;10.706;2022-10-16T01:30:20;2.57;;;2.20;;
5622;SDS011;2833;50.432;10.706;2022-10-16T01:32:50;5.60;;;2.20;;
5622;SDS011;2833;50.432;10.706;2022-10-16T01:35:18;2.10;;;2.00;;
5622;SDS011;2833;50.432;10.706;2022-10-16T01:40:12;2.07;;;1.97;;
5622;SDS011;2833;50.432;10.706;2022-10-16T01:42:39;2.17;;;2.07;;
5622;SDS011;2833;50.432;10.706;2022-10-16T01:45:06;2.57;;;2.40;;
5622;SDS011;2833;50.432;10.706;2022-10-16T01:47:32;2.40;;;2.20;;
5622;SDS011;2833;50.432;10.706;2022-10-16T01:49:59;1.70;;;1.60;;
5622;SDS011;2833;50.432;10.706;2022-10-16T01:52:26;2.20;;;2.00;;
5622;SDS011;2833;50.432;10.706;2022-10-16T01:54:53;1.93;;;1.83;;
5622;SDS011;2833;50.432;10.706;2022-10-16T01:57:19;2.20;;;2.10;;
5622;SDS011;2833;50.432;10.706;2022-10-16T01:59:48;2.20;;;2.10;;
5622;SDS011;2833;50.432;10.706;2022-10-16T02:02:15;2.33;;;2.23;;
5622;SDS011;2833;50.432;10.706;2022-10-16T02:04:42;2.10;;;2.00;;
5622;SDS011;2833;50.432;10.706;2022-10-16T02:07:08;2.37;;;2.20;;
5622;SDS011;2833;50.432;10.706;2022-10-16T02:09:34;2.40;;;2.30;;
5622;SDS011;2833;50.432;10.706;2022-10-16T02:12:01;2.80;;;2.10;;
5622;SDS011;2833;50.432;10.706;2022-10-16T02:14:28;2.60;;;2.40;;
5622;SDS011;2833;50.432;10.706;2022-10-16T02:16:53;2.50;;;2.17;;
5622;SDS011;2833;50.432;10.706;2022-10-16T02:19:19;2.50;;;2.30;;
5622;SDS011;2833;50.432;10.706;2022-10-16T02:21:49;3.10;;;2.30;;
5622;SDS011;2833;50.432;10.706;2022-10-16T02:26:43;2.70;;;2.50;;
5622;SDS011;2833;50.432;10.706;2022-10-16T02:29:11;4.20;;;3.37;;
5622;SDS011;2833;50.432;10.706;2022-10-16T02:31:38;2.20;;;2.10;;
5622;SDS011;2833;50.432;10.706;2022-10-16T02:34:06;2.30;;;2.20;;
5622;SDS011;2833;50.432;10.706;2022-10-16T02:36:32;4.43;;;3.13;;
5622;SDS011;2833;50.432;10.706;2022-10-16T02:38:57;2.87;;;2.67;;
5622;SDS011;2833;50.432;10.706;2022-10-16T02:41:26;2.10;;;2.00;;
5622;SDS011;2833;50.432;10.706;2022-10-16T02:43:51;2.80;;;2.30;;
5622;SDS011;2833;50.432;10.706;2022-10-16T02:46:16;3.00;;;2.80;;
5622;SDS011;2833;50.432;10.706;2022-10-16T02:48:42;2.00;;;1.90;;
5622;SDS011;2833;50.432;10.706;2022-10-16T02:51:07;2.30;;;2.20;;
5622;SDS011;2833;50.432;10.706;2022-10-16T02:53:32;3.20;;;2.07;;
5622;SDS011;2833;50.432;10.706;2022-10-16T02:55:58;2.40;;;2.13;;
5622;SDS011;2833;50.432;10.706;2022-10-16T02:58:23;2.70;;;2.50;;
5622;SDS011;2833;50.432;10.706;2022-10-16T03:00:48;2.40;;;2.27;;
5622;SDS011;2833;50.432;10.706;2022-10-16T03:03:13;2.83;;;2.20;;
5622;SDS011;2833;50.432;10.706;2022-10-16T03:05:39;2.10;;;2.00;;
5622;SDS011;2833;50.432;10.706;2022-10-16T03:08:04;5.00;;;2.33;;
5622;SDS011;2833;50.432;10.706;2022-10-16T03:10:30;2.50;;;2.40;;
5622;SDS011;2833;50.432;10.706;2022-10-16T03:12:55;2.47;;;2.30;;
5622;SDS011;2833;50.432;10.706;2022-10-16T03:15:20;2.80;;;2.60;;
5622;SDS011;2833;50.432;10.706;2022-10-16T03:17:45;2.60;;;2.50;;
5622;SDS011;2833;50.432;10.706;2022-10-16T03:20:11;2.27;;;2.17;;
5622;SDS011;2833;50.432;10.706;2022-10-16T03:22:36;2.53;;;2.33;;
5622;SDS011;2833;50.432;10.706;2022-10-16T03:25:01;2.30;;;2.20;;
5622;SDS011;2833;50.432;10.706;2022-10-16T03:27:26;2.27;;;2.17;;
5622;SDS011;2833;50.432;10.706;2022-10-16T03:29:52;6.70;;;1.90;;
5622;SDS011;2833;50.432;10.706;2022-10-16T03:32:17;2.13;;;2.03;;
5622;SDS011;2833;50.432;10.706;2022-10-16T03:34:43;2.00;;;1.90;;
5622;SDS011;2833;50.432;10.706;2022-10-16T03:37:08;1.60;;;1.50;;
5622;SDS011;2833;50.432;10.706;2022-10-16T03:39:33;1.50;;;1.40;;
5622;SDS011;2833;50.432;10.706;2022-10-16T03:41:59;1.90;;;1.80;;
5622;SDS011;2833;50.432;10.706;2022-10-16T03:44:24;1.80;;;1.70;;
5622;SDS011;2833;50.432;10.706;2022-10-16T03:46:49;1.90;;;1.80;;
5622;SDS011;2833;50.432;10.706;2022-10-16T03:49:14;1.80;;;1.70;;
5622;SDS011;2833;50.432;10.706;2022-10-16T03:51:39;1.70;;;1.60;;
5622;SDS011;2833;50.432;10.706;2022-10-16T03:54:05;2.70;;;1.60;;
5622;SDS011;2833;50.432;10.706;2022-10-16T03:56:30;1.90;;;1.80;;
5622;SDS011;2833;50.432;10.706;2022-10-16T03:58:55;1.93;;;1.83;;
5622;SDS011;2833;50.432;10.706;2022-10-16T04:01:20;1.40;;;1.40;;
5622;SDS011;2833;50.432;10.706;2022-10-16T04:03:46;1.90;;;1.80;;
5622;SDS011;2833;50.432;10.706;2022-10-16T04:06:11;1.83;;;1.73;;
5622;SDS011;2833;50.432;10.706;2022-10-16T04:08:36;1.70;;;1.60;;
5622;SDS011;2833;50.432;10.706;2022-10-16T04:11:02;2.53;;;2.33;;
5622;SDS011;2833;50.432;10.706;2022-10-16T04:13:27;2.17;;;2.00;;
5622;SDS011;2833;50.432;10.706;2022-10-16T04:15:52;3.03;;;1.80;;
5622;SDS011;2833;50.432;10.706;2022-10-16T04:18:17;1.87;;;1.77;;
5622;SDS011;2833;50.432;10.706;2022-10-16T04:20:43;1.50;;;1.40;;
5622;SDS011;2833;50.432;10.706;2022-10-16T04:23:08;2.50;;;1.83;;
5622;SDS011;2833;50.432;10.706;2022-10-16T04:25:33;2.13;;;2.03;;
5622;SDS011;2833;50.432;10.706;2022-10-16T04:27:58;1.53;;;1.43;;
5622;SDS011;2833;50.432;10.706;2022-10-16T04:30:23;3.30;;;3.00;;
5622;SDS011;2833;50.432;10.706;2022-10-16T04:32:52;2.20;;;2.07;;
5622;SDS011;2833;50.432;10.706;2022-10-16T04:35:18;1.60;;;1.50;;
5622;SDS011;2833;50.432;10.706;2022-10-16T04:37:43;1.83;;;1.73;;
5622;SDS011;2833;50.432;10.706;2022-10-16T04:40:08;3.23;;;1.40;;
5622;SDS011;2833;50.432;10.706;2022-10-16T04:42:34;2.43;;;2.27;;
5622;SDS011;2833;50.432;10.706;2022-10-16T04:44:59;1.37;;;1.37;;
5622;SDS011;2833;50.432;10.706;2022-10-16T04:47:24;1.30;;;1.20;;
5622;SDS011;2833;50.432;10.706;2022-10-16T04:49:49;2.77;;;1.63;;
5622;SDS011;2833;50.432;10.706;2022-10-16T04:52:14;1.27;;;1.17;;
5622;SDS011;2833;50.432;10.706;2022-10-16T04:54:40;1.30;;;1.20;;
5622;SDS011;2833;50.432;10.706;2022-10-16T04:57:05;3.13;;;1.10;;
5622;SDS011;2833;50.432;10.706;2022-10-16T04:59:30;1.17;;;1.17;;
5622;SDS011;2833;50.432;10.706;2022-10-16T05:01:55;1.20;;;1.20;;
5622;SDS011;2833;50.432;10.706;2022-10-16T05:04:21;1.30;;;1.20;;
5622;SDS011;2833;50.432;10.706;2022-10-16T05:06:47;3.00;;;2.13;;
5622;SDS011;2833;50.432;10.706;2022-10-16T05:09:12;1.20;;;1.20;;
5622;SDS011;2833;50.432;10.706;2022-10-16T05:11:37;1.27;;;1.20;;
5622;SDS011;2833;50.432;10.706;2022-10-16T05:14:02;1.97;;;1.57;;
5622;SDS011;2833;50.432;10.706;2022-10-16T05:16:28;1.83;;;1.73;;
5622;SDS011;2833;50.432;10.706;2022-10-16T05:18:53;1.30;;;1.20;;
5622;SDS011;2833;50.432;10.706;2022-10-16T05:21:19;1.43;;;1.40;;
5622;SDS011;2833;50.432;10.706;2022-10-16T05:23:44;1.47;;;1.47;;
5622;SDS011;2833;50.432;10.706;2022-10-16T05:26:10;1.47;;;1.27;;
5622;SDS011;2833;50.432;10.706;2022-10-16T05:28:35;1.40;;;1.30;;
5622;SDS011;2833;50.432;10.706;2022-10-16T05:31:06;1.50;;;1.40;;
5622;SDS011;2833;50.432;10.706;2022-10-16T05:33:32;1.43;;;1.40;;
5622;SDS011;2833;50.432;10.706;2022-10-16T05:36:00;1.30;;;1.30;;
5622;SDS011;2833;50.432;10.706;2022-10-16T05:38:26;1.40;;;1.40;;
5622;SDS011;2833;50.432;10.706;2022-10-16T05:40:51;1.20;;;1.20;;
5622;SDS011;2833;50.432;10.706;2022-10-16T05:43:17;2.10;;;1.30;;
5622;SDS011;2833;50.432;10.706;2022-10-16T05:45:42;1.47;;;1.37;;
5622;SDS011;2833;50.432;10.706;2022-10-16T05:48:08;1.47;;;1.37;;
5622;SDS011;2833;50.432;10.706;2022-10-16T05:50:33;4.40;;;1.50;;
5622;SDS011;2833;50.432;10.706;2022-10-16T05:52:58;1.50;;;1.40;;
5622;SDS011;2833;50.432;10.706;2022-10-16T05:55:23;1.57;;;1.47;;
5622;SDS011;2833;50.432;10.706;2022-10-16T05:57:48;1.70;;;1.60;;
5622;SDS011;2833;50.432;10.706;2022-10-16T06:00:14;1.27;;;1.20;;
5622;SDS011;2833;50.432;10.706;2022-10-16T06:02:39;1.47;;;1.37;;
5622;SDS011;2833;50.432;10.706;2022-10-16T06:05:04;1.40;;;1.30;;
5622;SDS011;2833;50.432;10.706;2022-10-16T06:07:33;1.57;;;1.43;;
5622;SDS011;2833;50.432;10.706;2022-10-16T06:09:58;1.50;;;1.40;;
5622;SDS011;2833;50.432;10.706;2022-10-16T06:12:23;1.50;;;1.40;;
5622;SDS011;2833;50.432;10.706;2022-10-16T06:14:48;1.50;;;1.40;;
5622;SDS011;2833;50.432;10.706;2022-10-16T06:17:14;1.30;;;1.30;;
5622;SDS011;2833;50.432;10.706;2022-10-16T06:19:39;1.40;;;1.30;;
5622;SDS011;2833;50.432;10.706;2022-10-16T06:22:05;3.97;;;1.70;;
5622;SDS011;2833;50.432;10.706;2022-10-16T06:24:30;1.40;;;1.30;;
5622;SDS011;2833;50.432;10.706;2022-10-16T06:26:55;1.43;;;1.33;;
5622;SDS011;2833;50.432;10.706;2022-10-16T06:29:20;1.47;;;1.30;;
5622;SDS011;2833;50.432;10.706;2022-10-16T06:31:46;1.60;;;1.50;;
5622;SDS011;2833;50.432;10.706;2022-10-16T06:34:11;1.93;;;1.63;;
5622;SDS011;2833;50.432;10.706;2022-10-16T06:36:37;10.10;;;7.57;;
5622;SDS011;2833;50.432;10.706;2022-10-16T06:39:02;60.60;;;40.77;;
5622;SDS011;2833;50.432;10.706;2022-10-16T06:41:27;11.07;;;9.90;;
5622;SDS011;2833;50.432;10.706;2022-10-16T06:43:53;4.60;;;3.57;;
5622;SDS011;2833;50.432;10.706;2022-10-16T06:46:19;7.83;;;3.70;;
5622;SDS011;2833;50.432;10.706;2022-10-16T06:48:44;3.40;;;3.10;;
5622;SDS011;2833;50.432;10.706;2022-10-16T06:51:27;4.27;;;3.87;;
5622;SDS011;2833;50.432;10.706;2022-10-16T06:53:54;3.63;;;3.30;;
5622;SDS011;2833;50.432;10.706;2022-10-16T06:56:25;2.00;;;1.90;;
5622;SDS011;2833;50.432;10.706;2022-10-16T06:58:50;4.13;;;1.93;;
5622;SDS011;2833;50.432;10.706;2022-10-16T07:01:16;3.13;;;2.87;;
5622;SDS011;2833;50.432;10.706;2022-10-16T07:03:42;40.87;;;23.63;;
5622;SDS011;2833;50.432;10.706;2022-10-16T07:06:09;11.60;;;8.50;;
5622;SDS011;2833;50.432;10.706;2022-10-16T07:08:35;12.43;;;4.50;;
5622;SDS011;2833;50.432;10.706;2022-10-16T07:11:01;4.27;;;3.87;;
5622;SDS011;2833;50.432;10.706;2022-10-16T07:13:27;4.30;;;4.00;;
5622;SDS011;2833;50.432;10.706;2022-10-16T07:15:52;6.20;;;5.60;;
5622;SDS011;2833;50.432;10.706;2022-10-16T07:18:17;7.20;;;6.13;;
5622;SDS011;2833;50.432;10.706;2022-10-16T07:20:43;4.27;;;3.93;;
5622;SDS011;2833;50.432;10.706;2022-10-16T07:23:08;6.10;;;4.57;;
5622;SDS011;2833;50.432;10.706;2022-10-16T07:25:33;5.57;;;4.17;;
5622;SDS011;2833;50.432;10.706;2022-10-16T07:27:59;4.70;;;4.30;;
5622;SDS011;2833;50.432;10.706;2022-10-16T07:30:24;3.80;;;3.50;;
5622;SDS011;2833;50.432;10.706;2022-10-16T07:32:49;4.00;;;3.70;;
5622;SDS011;2833;50.432;10.706;2022-10-16T07:35:14;4.93;;;4.17;;
5622;SDS011;2833;50.432;10.706;2022-10-16T07:37:43;8.23;;;6.77;;
5622;SDS011;2833;50.432;10.706;2022-10-16T07:40:08;6.87;;;5.73;;
5622;SDS011;2833;50.432;10.706;2022-10-16T07:42:34;5.67;;;5.23;;
5622;SDS011;2833;50.432;10.706;2022-10-16T07:44:59;6.60;;;4.47;;
5622;SDS011;2833;50.432;10.706;2022-10-16T07:47:24;4.20;;;3.80;;
5622;SDS011;2833;50.432;10.706;2022-10-16T07:49:49;5.20;;;3.77;;
5622;SDS011;2833;50.432;10.706;2022-10-16T07:52:14;3.90;;;3.60;;
5622;SDS011;2833;50.432;10.706;2022-10-16T07:54:40;3.93;;;3.63;;
5622;SDS011;2833;50.432;10.706;2022-10-16T07:57:05;5.73;;;5.13;;
5622;SDS011;2833;50.432;10.706;2022-10-16T07:59:30;5.13;;;4.57;;
5622;SDS011;2833;50.432;10.706;2022-10-16T08:01:56;5.60;;;5.00;;
5622;SDS011;2833;50.432;10.706;2022-10-16T08:04:21;3.63;;;3.13;;
5622;SDS011;2833;50.432;10.706;2022-10-16T08:06:46;3.30;;;3.00;;
5622;SDS011;2833;50.432;10.706;2022-10-16T08:09:11;6.30;;;5.33;;
5622;SDS011;2833;50.432;10.706;2022-10-16T08:11:37;4.87;;;4.47;;
5622;SDS011;2833;50.432;10.706;2022-10-16T08:14:02;5.23;;;4.73;;
5622;SDS011;2833;50.432;10.706;2022-10-16T08:16:27;4.53;;;3.90;;
5622;SDS011;2833;50.432;10.706;2022-10-16T08:18:52;5.70;;;4.70;;
5622;SDS011;2833;50.432;10.706;2022-10-16T08:21:19;6.47;;;5.20;;
5622;SDS011;2833;50.432;10.706;2022-10-16T08:23:44;4.30;;;3.90;;
5622;SDS011;2833;50.432;10.706;2022-10-16T08:26:10;14.60;;;4.77;;
5622;SDS011;2833;50.432;10.706;2022-10-16T08:28:36;5.90;;;3.80;;
5622;SDS011;2833;50.432;10.706;2022-10-16T08:31:05;4.60;;;4.20;;
5622;SDS011;2833;50.432;10.706;2022-10-16T08:33:30;3.80;;;3.40;;
5622;SDS011;2833;50.432;10.706;2022-10-16T08:35:55;4.73;;;4.10;;
5622;SDS011;2833;50.432;10.706;2022-10-16T08:38:21;4.47;;;4.07;;
5622;SDS011;2833;50.432;10.706;2022-10-16T08:40:46;3.70;;;3.40;;
5622;SDS011;2833;50.432;10.706;2022-10-16T08:50:37;4.13;;;3.23;;
5622;SDS011;2833;50.432;10.706;2022-10-16T08:53:03;5.20;;;4.63;;
5622;SDS011;2833;50.432;10.706;2022-10-16T08:55:31;4.90;;;4.50;;
5622;SDS011;2833;50.432;10.706;2022-10-16T08:57:58;6.70;;;5.17;;
5622;SDS011;2833;50.432;10.706;2022-10-16T09:00:23;4.67;;;4.27;;
5622;SDS011;2833;50.432;10.706;2022-10-16T09:03:13;6.20;;;3.80;;
5622;SDS011;2833;50.432;10.706;2022-10-16T09:11:14;3.63;;;3.33;;
5622;SDS011;2833;50.432;10.706;2022-10-16T09:13:45;5.77;;;3.80;;
5622;SDS011;2833;50.432;10.706;2022-10-16T09:16:14;3.30;;;3.10;;
5622;SDS011;2833;50.432;10.706;2022-10-16T09:18:54;3.60;;;3.30;;
5622;SDS011;2833;50.432;10.706;2022-10-16T09:21:30;6.17;;;3.30;;
5622;SDS011;2833;50.432;10.706;2022-10-16T09:23:59;4.03;;;2.77;;
5622;SDS011;2833;50.432;10.706;2022-10-16T09:26:29;6.73;;;3.33;;
5622;SDS011;2833;50.432;10.706;2022-10-16T09:28:54;3.87;;;2.57;;
5622;SDS011;2833;50.432;10.706;2022-10-16T09:31:20;4.63;;;4.23;;
5622;SDS011;2833;50.432;10.706;2022-10-16T09:33:50;6.57;;;3.27;;
5622;SDS011;2833;50.432;10.706;2022-10-16T09:36:17;3.20;;;2.90;;
5622;SDS011;2833;50.432;10.706;2022-10-16T09:38:43;3.90;;;2.77;;
5622;SDS011;2833;50.432;10.706;2022-10-16T09:43:39;3.50;;;3.20;;
5622;SDS011;2833;50.432;10.706;2022-10-16T09:46:06;2.70;;;2.50;;
5622;SDS011;2833;50.432;10.706;2022-10-16T09:51:04;3.43;;;3.13;;
5622;SDS011;2833;50.432;10.706;2022-10-16T09:53:46;3.27;;;2.97;;
5622;SDS011;2833;50.432;10.706;2022-10-16T09:56:20;3.37;;;3.10;;
5622;SDS011;2833;50.432;10.706;2022-10-16T09:58:59;2.33;;;2.13;;
5622;SDS011;2833;50.432;10.706;2022-10-16T10:01:29;3.10;;;2.80;;
5622;SDS011;2833;50.432;10.706;2022-10-16T10:03:55;2.67;;;2.47;;
5622;SDS011;2833;50.432;10.706;2022-10-16T10:06:26;2.77;;;2.57;;
5622;SDS011;2833;50.432;10.706;2022-10-16T10:08:59;3.33;;;2.53;;
5622;SDS011;2833;50.432;10.706;2022-10-16T10:14:45;3.07;;;2.77;;
5622;SDS011;2833;50.432;10.706;2022-10-16T10:16:51;3.90;;;2.70;;
5622;SDS011;2833;50.432;10.706;2022-10-16T10:19:18;2.87;;;2.67;;
5622;SDS011;2833;50.432;10.706;2022-10-16T10:21:43;16.27;;;8.67;;
5622;SDS011;2833;50.432;10.706;2022-10-16T10:24:12;8.00;;;5.07;;
5622;SDS011;2833;50.432;10.706;2022-10-16T10:26:38;3.30;;;3.00;;
5622;SDS011;2833;50.432;10.706;2022-10-16T10:31:52;3.20;;;2.90;;
5622;SDS011;2833;50.432;10.706;2022-10-16T10:36:59;3.20;;;2.70;;
5622;SDS011;2833;50.432;10.706;2022-10-16T10:40:12;2.47;;;2.27;;
5622;SDS011;2833;50.432;10.706;2022-10-16T10:47:27;3.57;;;2.67;;
5622;SDS011;2833;50.432;10.706;2022-10-16T10:50:02;4.37;;;3.10;;
5622;SDS011;2833;50.432;10.706;2022-10-16T10:52:34;3.43;;;2.70;;
5622;SDS011;2833;50.432;10.706;2022-10-16T10:57:52;4.07;;;2.80;;
5622;SDS011;2833;50.432;10.706;2022-10-16T11:05:52;3.53;;;2.77;;
5622;SDS011;2833;50.432;10.706;2022-10-16T11:08:37;3.23;;;2.93;;
5622;SDS011;2833;50.432;10.706;2022-10-16T11:11:07;3.30;;;3.00;;
5622;SDS011;2833;50.432;10.706;2022-10-16T11:13:36;3.33;;;2.47;;
5622;SDS011;2833;50.432;10.706;2022-10-16T11:16:13;2.93;;;2.73;;
5622;SDS011;2833;50.432;10.706;2022-10-16T11:18:45;7.70;;;2.53;;
5622;SDS011;2833;50.432;10.706;2022-10-16T11:21:13;3.20;;;2.30;;
5622;SDS011;2833;50.432;10.706;2022-10-16T11:24:00;2.70;;;2.50;;
5622;SDS011;2833;50.432;10.706;2022-10-16T11:26:28;2.43;;;2.23;;
5622;SDS011;2833;50.432;10.706;2022-10-16T11:28:56;3.53;;;2.50;;
5622;SDS011;2833;50.432;10.706;2022-10-16T11:31:32;3.13;;;2.83;;
5622;SDS011;2833;50.432;10.706;2022-10-16T11:35:02;2.53;;;2.33;;
5622;SDS011;2833;50.432;10.706;2022-10-16T11:39:27;3.00;;;2.50;;
5622;SDS011;2833;50.432;10.706;2022-10-16T11:41:53;2.80;;;2.60;;
5622;SDS011;2833;50.432;10.706;2022-10-16T11:49:30;2.60;;;2.40;;
5622;SDS011;2833;50.432;10.706;2022-10-16T11:57:53;2.30;;;2.10;;
5622;SDS011;2833;50.432;10.706;2022-10-16T12:00:26;3.03;;;2.27;;
5622;SDS011;2833;50.432;10.706;2022-10-16T12:03:03;2.43;;;2.23;;
5622;SDS011;2833;50.432;10.706;2022-10-16T12:05:35;3.60;;;2.70;;
5622;SDS011;2833;50.432;10.706;2022-10-16T12:08:09;2.20;;;2.03;;
5622;SDS011;2833;50.432;10.706;2022-10-16T12:10:35;2.07;;;1.90;;
5622;SDS011;2833;50.432;10.706;2022-10-16T12:13:03;2.40;;;2.20;;
5622;SDS011;2833;50.432;10.706;2022-10-16T12:15:29;4.10;;;2.97;;
5622;SDS011;2833;50.432;10.706;2022-10-16T12:17:55;2.57;;;2.30;;
5622;SDS011;2833;50.432;10.706;2022-10-16T12:22:49;4.80;;;3.10;;
5622;SDS011;2833;50.432;10.706;2022-10-16T12:28:05;2.70;;;2.40;;
5622;SDS011;2833;50.432;10.706;2022-10-16T12:30:32;2.13;;;2.03;;
5622;SDS011;2833;50.432;10.706;2022-10-16T12:32:59;2.80;;;2.60;;
5622;SDS011;2833;50.432;10.706;2022-10-16T12:35:27;2.80;;;2.60;;
5622;SDS011;2833;50.432;10.706;2022-10-16T12:37:53;2.13;;;2.03;;
5622;SDS011;2833;50.432;10.706;2022-10-16T12:40:26;2.10;;;2.00;;
5622;SDS011;2833;50.432;10.706;2022-10-16T12:42:53;4.40;;;3.33;;
5622;SDS011;2833;50.432;10.706;2022-10-16T12:45:25;3.33;;;2.80;;
5622;SDS011;2833;50.432;10.706;2022-10-16T12:47:52;2.83;;;2.50;;
5622;SDS011;2833;50.432;10.706;2022-10-16T12:50:26;2.33;;;2.13;;
5622;SDS011;2833;50.432;10.706;2022-10-16T12:52:52;2.10;;;2.00;;
5622;SDS011;2833;50.432;10.706;2022-10-16T12:55:18;3.50;;;2.37;;
5622;SDS011;2833;50.432;10.706;2022-10-16T13:05:30;3.63;;;2.40;;
5622;SDS011;2833;50.432;10.706;2022-10-16T13:08:15;3.50;;;2.67;;
5622;SDS011;2833;50.432;10.706;2022-10-16T13:23:23;2.10;;;2.00;;
5622;SDS011;2833;50.432;10.706;2022-10-16T13:28:31;2.90;;;2.60;;
5622;SDS011;2833;50.432;10.706;2022-10-16T13:30:58;13.20;;;7.47;;
5622;SDS011;2833;50.432;10.706;2022-10-16T13:33:28;4.07;;;3.60;;
5622;SDS011;2833;50.432;10.706;2022-10-16T13:35:56;3.40;;;3.13;;
5622;SDS011;2833;50.432;10.706;2022-10-16T13:38:22;2.50;;;2.20;;
5622;SDS011;2833;50.432;10.706;2022-10-16T13:40:48;2.57;;;2.37;;
5622;SDS011;2833;50.432;10.706;2022-10-16T13:43:14;2.10;;;2.00;;
5622;SDS011;2833;50.432;10.706;2022-10-16T13:45:39;2.30;;;2.20;;
5622;SDS011;2833;50.432;10.706;2022-10-16T13:48:05;2.70;;;2.10;;
5622;SDS011;2833;50.432;10.706;2022-10-16T13:50:31;2.30;;;2.10;;
5622;SDS011;2833;50.432;10.706;2022-10-16T13:53:14;2.10;;;2.00;;
5622;SDS011;2833;50.432;10.706;2022-10-16T13:55:39;2.40;;;2.20;;
5622;SDS011;2833;50.432;10.706;2022-10-16T13:58:10;2.33;;;2.13;;
5622;SDS011;2833;50.432;10.706;2022-10-16T14:00:37;2.30;;;2.10;;
5622;SDS011;2833;50.432;10.706;2022-10-16T14:03:07;2.70;;;2.50;;
5622;SDS011;2833;50.432;10.706;2022-10-16T14:05:36;2.33;;;2.00;;
5622;SDS011;2833;50.432;10.706;2022-10-16T14:08:01;2.03;;;1.93;;
5622;SDS011;2833;50.432;10.706;2022-10-16T14:10:30;2.20;;;2.10;;
5622;SDS011;2833;50.432;10.706;2022-10-16T14:13:00;3.93;;;2.40;;
5622;SDS011;2833;50.432;10.706;2022-10-16T14:15:26;2.47;;;2.30;;
5622;SDS011;2833;50.432;10.706;2022-10-16T14:17:51;2.30;;;2.13;;
5622;SDS011;2833;50.432;10.706;2022-10-16T14:20:17;7.10;;;2.93;;
5622;SDS011;2833;50.432;10.706;2022-10-16T14:22:43;3.43;;;2.70;;
5622;SDS011;2833;50.432;10.706;2022-10-16T14:28:02;2.77;;;2.57;;
5622;SDS011;2833;50.432;10.706;2022-10-16T14:30:29;2.63;;;2.43;;
5622;SDS011;2833;50.432;10.706;2022-10-16T14:32:55;2.37;;;2.27;;
5622;SDS011;2833;50.432;10.706;2022-10-16T14:35:22;2.23;;;2.07;;
5622;SDS011;2833;50.432;10.706;2022-10-16T14:37:50;1.77;;;1.67;;
5622;SDS011;2833;50.432;10.706;2022-10-16T14:40:16;1.90;;;1.80;;
5622;SDS011;2833;50.432;10.706;2022-10-16T14:42:42;2.70;;;2.50;;
5622;SDS011;2833;50.432;10.706;2022-10-16T14:45:08;2.37;;;1.90;;
5622;SDS011;2833;50.432;10.706;2022-10-16T14:47:34;1.90;;;1.80;;
5622;SDS011;2833;50.432;10.706;2022-10-16T14:50:01;2.33;;;2.13;;
5622;SDS011;2833;50.432;10.706;2022-10-16T14:52:26;1.90;;;1.80;;
5622;SDS011;2833;50.432;10.706;2022-10-16T14:54:51;2.00;;;1.90;;
5622;SDS011;2833;50.432;10.706;2022-10-16T14:57:20;6.23;;;2.00;;
5622;SDS011;2833;50.432;10.706;2022-10-16T14:59:47;2.50;;;2.30;;
5622;SDS011;2833;50.432;10.706;2022-10-16T15:04:44;29.73;;;16.00;;
5622;SDS011;2833;50.432;10.706;2022-10-16T15:07:10;5.50;;;4.70;;
5622;SDS011;2833;50.432;10.706;2022-10-16T15:09:35;4.63;;;3.00;;
5622;SDS011;2833;50.432;10.706;2022-10-16T15:12:00;3.03;;;2.60;;
5622;SDS011;2833;50.432;10.706;2022-10-16T15:14:25;7.83;;;3.87;;
5622;SDS011;2833;50.432;10.706;2022-10-16T15:16:50;8.80;;;5.50;;
5622;SDS011;2833;50.432;10.706;2022-10-16T15:19:16;11.57;;;6.00;;
5622;SDS011;2833;50.432;10.706;2022-10-16T15:21:41;4.17;;;3.77;;
5622;SDS011;2833;50.432;10.706;2022-10-16T15:24:13;34.00;;;18.00;;
5622;SDS011;2833;50.432;10.706;2022-10-16T15:26:38;68.80;;;40.30;;
5622;SDS011;2833;50.432;10.706;2022-10-16T15:29:04;15.60;;;10.60;;
5622;SDS011;2833;50.432;10.706;2022-10-16T15:31:29;19.47;;;13.37;;
5622;SDS011;2833;50.432;10.706;2022-10-16T15:33:55;16.63;;;8.20;;
5622;SDS011;2833;50.432;10.706;2022-10-16T15:36:36;8.63;;;5.30;;
5622;SDS011;2833;50.432;10.706;2022-10-16T15:39:20;7.53;;;4.07;;
5622;SDS011;2833;50.432;10.706;2022-10-16T15:41:46;8.80;;;5.93;;
5622;SDS011;2833;50.432;10.706;2022-10-16T15:44:16;10.33;;;7.70;;
5622;SDS011;2833;50.432;10.706;2022-10-16T15:46:41;6.53;;;5.90;;
5622;SDS011;2833;50.432;10.706;2022-10-16T15:49:12;14.43;;;9.17;;
5622;SDS011;2833;50.432;10.706;2022-10-16T15:51:38;40.20;;;22.77;;
5622;SDS011;2833;50.432;10.706;2022-10-16T15:54:03;92.83;;;39.73;;
5622;SDS011;2833;50.432;10.706;2022-10-16T15:56:29;32.80;;;18.87;;
5622;SDS011;2833;50.432;10.706;2022-10-16T15:58:55;43.00;;;16.80;;
5622;SDS011;2833;50.432;10.706;2022-10-16T16:01:22;114.43;;;30.90;;
5622;SDS011;2833;50.432;10.706;2022-10-16T16:03:47;107.17;;;28.40;;
5622;SDS011;2833;50.432;10.706;2022-10-16T16:06:13;34.97;;;13.40;;
5622;SDS011;2833;50.432;10.706;2022-10-16T16:08:38;39.63;;;11.70;;
5622;SDS011;2833;50.432;10.706;2022-10-16T16:11:06;4.60;;;4.20;;
5622;SDS011;2833;50.432;10.706;2022-10-16T16:13:31;7.00;;;3.63;;
5622;SDS011;2833;50.432;10.706;2022-10-16T16:15:57;6.73;;;4.07;;
5622;SDS011;2833;50.432;10.706;2022-10-16T16:18:22;6.00;;;4.50;;
5622;SDS011;2833;50.432;10.706;2022-10-16T16:20:48;4.93;;;4.47;;
5622;SDS011;2833;50.432;10.706;2022-10-16T16:23:14;9.47;;;4.33;;
5622;SDS011;2833;50.432;10.706;2022-10-16T16:25:39;5.47;;;4.50;;
5622;SDS011;2833;50.432;10.706;2022-10-16T16:28:04;10.57;;;6.77;;
5622;SDS011;2833;50.432;10.706;2022-10-16T16:30:32;21.30;;;11.90;;
5622;SDS011;2833;50.432;10.706;2022-10-16T16:32:57;26.13;;;14.87;;
5622;SDS011;2833;50.432;10.706;2022-10-16T16:35:22;11.00;;;7.67;;
5622;SDS011;2833;50.432;10.706;2022-10-16T16:37:47;13.63;;;9.40;;
5622;SDS011;2833;50.432;10.706;2022-10-16T16:40:13;21.23;;;16.77;;
5622;SDS011;2833;50.432;10.706;2022-10-16T16:42:38;12.30;;;10.63;;